sensor_id;sensor_type;location;lat;lon;timestamp;temperature;humidity
41644;DHT22;44236;48.098;11.582;2023-08-07T04:58:23;20.10;61.00
41644;DHT22;44236;48.098;11.582;2023-08-07T05:00:57;20.10;61.90
41644;DHT22;44236;48.098;11.582;2023-08-07T05:03:23;20.10;61.90
41644;DHT22;44236;48.098;11.582;2023-08-07T05:05:48;20.10;62.40
41644;DHT22;44236;48.098;11.582;2023-08-07T05:08:14;20.20;61.90
41644;DHT22;44236;48.098;11.582;2023-08-07T05:10:40;20.10;62.40
41644;DHT22;44236;48.098;11.582;2023-08-07T05:13:05;20.20;62.70
41644;DHT22;44236;48.098;11.582;2023-08-07T05:15:31;20.20;61.70
41644;DHT22;44236;48.098;11.582;2023-08-07T05:17:57;20.20;61.70
41644;DHT22;44236;48.098;11.582;2023-08-07T05:20:23;20.20;61.60
41644;DHT22;44236;48.098;11.582;2023-08-07T05:22:49;20.20;61.20
41644;DHT22;44236;48.098;11.582;2023-08-07T05:25:15;20.20;61.10
41644;DHT22;44236;48.098;11.582;2023-08-07T05:27:45;20.20;60.80
41644;DHT22;44236;48.098;11.582;2023-08-07T05:30:11;20.20;60.50
41644;DHT22;44236;48.098;11.582;2023-08-07T05:32:37;20.20;61.00
41644;DHT22;44236;48.098;11.582;2023-08-07T05:35:04;20.20;60.40
41644;DHT22;44236;48.098;11.582;2023-08-07T05:37:30;20.10;60.30
41644;DHT22;44236;48.098;11.582;2023-08-07T05:39:57;20.10;60.10
41644;DHT22;44236;48.098;11.582;2023-08-07T05:42:22;20.10;59.90
41644;DHT22;44236;48.098;11.582;2023-08-07T05:44:48;20.10;59.80
41644;DHT22;44236;48.098;11.582;2023-08-07T05:47:14;20.10;59.70
41644;DHT22;44236;48.098;11.582;2023-08-07T05:49:40;20.10;59.80
41644;DHT22;44236;48.098;11.582;2023-08-07T05:52:06;20.10;60.10
41644;DHT22;44236;48.098;11.582;2023-08-07T05:54:31;20.10;60.90
41644;DHT22;44236;48.098;11.582;2023-08-07T05:56:58;20.10;61.40
41644;DHT22;44236;48.098;11.582;2023-08-07T05:59:24;20.10;61.60
41644;DHT22;44236;48.098;11.582;2023-08-07T06:01:50;20.10;61.70
41644;DHT22;44236;48.098;11.582;2023-08-07T06:04:16;20.10;61.80
41644;DHT22;44236;48.098;11.582;2023-08-07T06:06:42;20.10;61.50
41644;DHT22;44236;48.098;11.582;2023-08-07T06:09:08;20.10;61.00
41644;DHT22;44236;48.098;11.582;2023-08-07T06:11:34;20.10;60.70
41644;DHT22;44236;48.098;11.582;2023-08-07T06:14:00;20.10;60.60
41644;DHT22;44236;48.098;11.582;2023-08-07T06:16:26;20.10;60.30
41644;DHT22;44236;48.098;11.582;2023-08-07T06:18:52;20.10;60.10
41644;DHT22;44236;48.098;11.582;2023-08-07T06:21:18;20.10;59.90
41644;DHT22;44236;48.098;11.582;2023-08-07T06:23:45;20.10;59.80
41644;DHT22;44236;48.098;11.582;2023-08-07T06:26:11;20.10;59.80
41644;DHT22;44236;48.098;11.582;2023-08-07T06:28:36;20.10;59.60
41644;DHT22;44236;48.098;11.582;2023-08-07T06:31:02;20.00;59.70
41644;DHT22;44236;48.098;11.582;2023-08-07T06:33:29;20.00;59.10
41644;DHT22;44236;48.098;11.582;2023-08-07T06:35:55;20.00;59.30
41644;DHT22;44236;48.098;11.582;2023-08-07T06:38:21;20.00;59.10
41644;DHT22;44236;48.098;11.582;2023-08-07T06:40:46;20.00;59.30
41644;DHT22;44236;48.098;11.582;2023-08-07T06:43:12;20.00;59.30
41644;DHT22;44236;48.098;11.582;2023-08-07T06:45:37;20.00;58.90
41644;DHT22;44236;48.098;11.582;2023-08-07T06:48:03;20.00;58.60
41644;DHT22;44236;48.098;11.582;2023-08-07T06:50:29;20.00;58.60
41644;DHT22;44236;48.098;11.582;2023-08-07T06:52:54;20.00;58.50
41644;DHT22;44236;48.098;11.582;2023-08-07T06:55:20;20.00;58.40
41644;DHT22;44236;48.098;11.582;2023-08-07T06:57:46;20.10;58.40
41644;DHT22;44236;48.098;11.582;2023-08-07T07:00:12;20.10;58.30
41644;DHT22;44236;48.098;11.582;2023-08-07T07:02:37;20.00;58.20
41644;DHT22;44236;48.098;11.582;2023-08-07T07:05:03;20.10;58.30
41644;DHT22;44236;48.098;11.582;2023-08-07T07:07:30;20.10;58.30
41644;DHT22;44236;48.098;11.582;2023-08-07T07:09:56;20.10;58.20
41644;DHT22;44236;48.098;11.582;2023-08-07T07:12:23;19.90;54.90
41644;DHT22;44236;48.098;11.582;2023-08-07T07:14:49;19.80;53.20
41644;DHT22;44236;48.098;11.582;2023-08-07T07:17:14;19.60;52.00
41644;DHT22;44236;48.098;11.582;2023-08-07T07:19:40;19.50;53.60
41644;DHT22;44236;48.098;11.582;2023-08-07T07:22:05;19.60;54.50
41644;DHT22;44236;48.098;11.582;2023-08-07T07:24:31;19.70;55.10
41644;DHT22;44236;48.098;11.582;2023-08-07T07:26:57;19.80;55.20
41644;DHT22;44236;48.098;11.582;2023-08-07T07:29:22;19.90;55.20
41644;DHT22;44236;48.098;11.582;2023-08-07T07:31:49;19.90;55.10
41644;DHT22;44236;48.098;11.582;2023-08-07T07:34:15;20.00;55.30
41644;DHT22;44236;48.098;11.582;2023-08-07T07:36:41;20.00;55.30
41644;DHT22;44236;48.098;11.582;2023-08-07T07:39:06;20.10;55.50
41644;DHT22;44236;48.098;11.582;2023-08-07T07:41:32;20.10;55.70
41644;DHT22;44236;48.098;11.582;2023-08-07T07:43:57;20.10;55.70
41644;DHT22;44236;48.098;11.582;2023-08-07T07:46:23;20.10;55.70
41644;DHT22;44236;48.098;11.582;2023-08-07T07:48:49;20.20;55.80
41644;DHT22;44236;48.098;11.582;2023-08-07T07:51:15;20.20;55.80
41644;DHT22;44236;48.098;11.582;2023-08-07T07:53:40;20.10;55.80
41644;DHT22;44236;48.098;11.582;2023-08-07T07:56:06;20.10;55.90
41644;DHT22;44236;48.098;11.582;2023-08-07T07:58:32;20.20;55.90
41644;DHT22;44236;48.098;11.582;2023-08-07T08:00:57;20.20;56.10
41644;DHT22;44236;48.098;11.582;2023-08-07T08:03:23;20.20;56.10
41644;DHT22;44236;48.098;11.582;2023-08-07T08:05:52;20.20;56.10
41644;DHT22;44236;48.098;11.582;2023-08-07T08:08:18;20.20;56.20
41644;DHT22;44236;48.098;11.582;2023-08-07T08:10:44;20.20;56.20
41644;DHT22;44236;48.098;11.582;2023-08-07T08:13:12;20.10;56.20
41644;DHT22;44236;48.098;11.582;2023-08-07T08:15:37;20.20;56.30
41644;DHT22;44236;48.098;11.582;2023-08-07T08:18:03;20.20;56.30
41644;DHT22;44236;48.098;11.582;2023-08-07T08:20:29;20.20;56.40
41644;DHT22;44236;48.098;11.582;2023-08-07T08:22:56;20.20;56.40
41644;DHT22;44236;48.098;11.582;2023-08-07T08:25:22;20.10;56.30
41644;DHT22;44236;48.098;11.582;2023-08-07T08:27:47;20.10;56.40
41644;DHT22;44236;48.098;11.582;2023-08-07T08:30:13;20.20;56.40
41644;DHT22;44236;48.098;11.582;2023-08-07T08:32:39;20.20;56.40
41644;DHT22;44236;48.098;11.582;2023-08-07T08:35:05;20.20;56.40
41644;DHT22;44236;48.098;11.582;2023-08-07T08:37:31;20.10;56.40
41644;DHT22;44236;48.098;11.582;2023-08-07T08:39:57;20.10;56.40
41644;DHT22;44236;48.098;11.582;2023-08-07T08:42:22;20.10;56.40
41644;DHT22;44236;48.098;11.582;2023-08-07T08:44:52;20.10;56.40
41644;DHT22;44236;48.098;11.582;2023-08-07T08:47:18;20.20;56.50
41644;DHT22;44236;48.098;11.582;2023-08-07T08:49:47;20.10;56.40
41644;DHT22;44236;48.098;11.582;2023-08-07T08:52:13;20.20;56.50
41644;DHT22;44236;48.098;11.582;2023-08-07T08:54:43;20.10;56.50
41644;DHT22;44236;48.098;11.582;2023-08-07T08:57:09;20.10;56.50
41644;DHT22;44236;48.098;11.582;2023-08-07T08:59:36;20.10;56.50
41644;DHT22;44236;48.098;11.582;2023-08-07T09:02:02;20.10;56.50
41644;DHT22;44236;48.098;11.582;2023-08-07T09:04:29;20.10;56.50
41644;DHT22;44236;48.098;11.582;2023-08-07T09:06:54;20.20;56.50
41644;DHT22;44236;48.098;11.582;2023-08-07T09:09:21;20.20;56.60
41644;DHT22;44236;48.098;11.582;2023-08-07T09:11:48;20.10;56.50
41644;DHT22;44236;48.098;11.582;2023-08-07T09:14:16;20.10;56.50
41644;DHT22;44236;48.098;11.582;2023-08-07T09:16:45;20.20;56.50
41644;DHT22;44236;48.098;11.582;2023-08-07T09:19:11;20.20;56.60
41644;DHT22;44236;48.098;11.582;2023-08-07T09:21:37;20.10;56.60
41644;DHT22;44236;48.098;11.582;2023-08-07T09:24:02;20.20;56.60
41644;DHT22;44236;48.098;11.582;2023-08-07T09:26:28;20.10;56.60
41644;DHT22;44236;48.098;11.582;2023-08-07T09:28:54;20.20;56.60
41644;DHT22;44236;48.098;11.582;2023-08-07T09:31:21;20.20;56.50
41644;DHT22;44236;48.098;11.582;2023-08-07T09:33:48;20.20;56.50
41644;DHT22;44236;48.098;11.582;2023-08-07T09:36:16;20.10;56.40
41644;DHT22;44236;48.098;11.582;2023-08-07T09:38:43;20.10;56.40
41644;DHT22;44236;48.098;11.582;2023-08-07T09:41:09;20.10;56.50
41644;DHT22;44236;48.098;11.582;2023-08-07T09:43:36;20.20;56.50
41644;DHT22;44236;48.098;11.582;2023-08-07T09:46:06;20.10;56.50
41644;DHT22;44236;48.098;11.582;2023-08-07T09:48:31;20.10;56.50
41644;DHT22;44236;48.098;11.582;2023-08-07T09:51:02;20.20;56.50
41644;DHT22;44236;48.098;11.582;2023-08-07T09:53:29;20.10;56.40
41644;DHT22;44236;48.098;11.582;2023-08-07T09:55:55;20.20;56.50
41644;DHT22;44236;48.098;11.582;2023-08-07T09:58:22;20.10;56.40
41644;DHT22;44236;48.098;11.582;2023-08-07T10:00:48;20.10;56.40
41644;DHT22;44236;48.098;11.582;2023-08-07T10:03:14;20.20;56.40
41644;DHT22;44236;48.098;11.582;2023-08-07T10:05:41;20.20;56.40
41644;DHT22;44236;48.098;11.582;2023-08-07T10:08:07;20.20;56.40
41644;DHT22;44236;48.098;11.582;2023-08-07T10:10:33;20.20;56.40
41644;DHT22;44236;48.098;11.582;2023-08-07T10:13:02;20.20;56.40
41644;DHT22;44236;48.098;11.582;2023-08-07T10:15:29;20.20;56.50
41644;DHT22;44236;48.098;11.582;2023-08-07T10:17:56;20.20;56.50
41644;DHT22;44236;48.098;11.582;2023-08-07T10:20:22;20.20;56.50
41644;DHT22;44236;48.098;11.582;2023-08-07T10:22:50;20.20;56.50
41644;DHT22;44236;48.098;11.582;2023-08-07T10:25:22;20.30;56.60
41644;DHT22;44236;48.098;11.582;2023-08-07T10:27:51;20.20;56.60
41644;DHT22;44236;48.098;11.582;2023-08-07T10:30:19;20.30;56.50
41644;DHT22;44236;48.098;11.582;2023-08-07T10:32:45;20.30;56.60
41644;DHT22;44236;48.098;11.582;2023-08-07T10:35:31;20.30;56.60
41644;DHT22;44236;48.098;11.582;2023-08-07T10:38:07;20.30;56.50
41644;DHT22;44236;48.098;11.582;2023-08-07T10:40:34;20.40;56.80
41644;DHT22;44236;48.098;11.582;2023-08-07T10:43:20;20.40;56.80
41644;DHT22;44236;48.098;11.582;2023-08-07T10:45:49;20.40;56.80
41644;DHT22;44236;48.098;11.582;2023-08-07T10:48:18;20.40;56.70
41644;DHT22;44236;48.098;11.582;2023-08-07T10:50:57;20.40;56.80
41644;DHT22;44236;48.098;11.582;2023-08-07T10:53:34;20.40;56.80
41644;DHT22;44236;48.098;11.582;2023-08-07T10:56:04;20.40;56.80
41644;DHT22;44236;48.098;11.582;2023-08-07T10:58:32;20.40;56.80
41644;DHT22;44236;48.098;11.582;2023-08-07T11:03:48;20.40;56.60
41644;DHT22;44236;48.098;11.582;2023-08-07T11:06:15;20.50;56.70
41644;DHT22;44236;48.098;11.582;2023-08-07T11:08:40;20.50;56.60
41644;DHT22;44236;48.098;11.582;2023-08-07T11:11:06;20.50;56.50
41644;DHT22;44236;48.098;11.582;2023-08-07T11:13:35;20.50;56.70
41644;DHT22;44236;48.098;11.582;2023-08-07T11:16:04;20.50;56.40
41644;DHT22;44236;48.098;11.582;2023-08-07T11:18:30;20.50;56.50
41644;DHT22;44236;48.098;11.582;2023-08-07T11:20:56;20.50;56.60
41644;DHT22;44236;48.098;11.582;2023-08-07T11:23:25;20.50;56.40
41644;DHT22;44236;48.098;11.582;2023-08-07T11:25:54;20.50;56.40
41644;DHT22;44236;48.098;11.582;2023-08-07T11:28:21;20.60;56.60
41644;DHT22;44236;48.098;11.582;2023-08-07T11:30:51;20.50;56.40
41644;DHT22;44236;48.098;11.582;2023-08-07T11:33:18;20.50;56.40
41644;DHT22;44236;48.098;11.582;2023-08-07T11:35:45;20.50;56.50
41644;DHT22;44236;48.098;11.582;2023-08-07T11:38:11;20.50;56.50
41644;DHT22;44236;48.098;11.582;2023-08-07T11:40:37;20.50;56.30
41644;DHT22;44236;48.098;11.582;2023-08-07T11:43:03;20.50;56.60
41644;DHT22;44236;48.098;11.582;2023-08-07T11:45:28;20.60;56.50
41644;DHT22;44236;48.098;11.582;2023-08-07T11:47:55;20.60;56.40
41644;DHT22;44236;48.098;11.582;2023-08-07T11:50:22;20.60;56.60
41644;DHT22;44236;48.098;11.582;2023-08-07T11:52:48;20.60;56.60
41644;DHT22;44236;48.098;11.582;2023-08-07T11:55:14;20.50;56.90
41644;DHT22;44236;48.098;11.582;2023-08-07T11:57:40;20.50;57.40
41644;DHT22;44236;48.098;11.582;2023-08-07T12:00:08;20.50;57.20
41644;DHT22;44236;48.098;11.582;2023-08-07T12:02:42;20.50;57.20
41644;DHT22;44236;48.098;11.582;2023-08-07T12:05:11;20.50;57.20
41644;DHT22;44236;48.098;11.582;2023-08-07T12:07:38;20.50;57.10
41644;DHT22;44236;48.098;11.582;2023-08-07T12:10:07;20.50;57.10
41644;DHT22;44236;48.098;11.582;2023-08-07T12:12:34;20.50;57.00
41644;DHT22;44236;48.098;11.582;2023-08-07T12:15:01;20.50;57.10
41644;DHT22;44236;48.098;11.582;2023-08-07T12:17:26;20.50;56.90
41644;DHT22;44236;48.098;11.582;2023-08-07T12:19:52;20.50;56.70
41644;DHT22;44236;48.098;11.582;2023-08-07T12:22:19;20.50;56.40
41644;DHT22;44236;48.098;11.582;2023-08-07T12:24:45;20.50;56.30
41644;DHT22;44236;48.098;11.582;2023-08-07T12:27:11;20.50;56.40
41644;DHT22;44236;48.098;11.582;2023-08-07T12:29:36;20.50;56.60
41644;DHT22;44236;48.098;11.582;2023-08-07T12:32:02;20.50;56.60
41644;DHT22;44236;48.098;11.582;2023-08-07T12:34:28;20.50;56.60
41644;DHT22;44236;48.098;11.582;2023-08-07T12:36:54;20.50;56.60
41644;DHT22;44236;48.098;11.582;2023-08-07T12:39:19;20.60;56.60
41644;DHT22;44236;48.098;11.582;2023-08-07T12:41:46;20.60;56.60
41644;DHT22;44236;48.098;11.582;2023-08-07T12:44:13;20.60;56.50
41644;DHT22;44236;48.098;11.582;2023-08-07T12:46:39;20.60;56.40
41644;DHT22;44236;48.098;11.582;2023-08-07T12:49:08;20.60;56.30
41644;DHT22;44236;48.098;11.582;2023-08-07T12:51:34;20.60;56.60
41644;DHT22;44236;48.098;11.582;2023-08-07T12:53:59;20.60;56.50
41644;DHT22;44236;48.098;11.582;2023-08-07T12:56:25;20.60;56.40
41644;DHT22;44236;48.098;11.582;2023-08-07T12:58:50;20.60;56.20
41644;DHT22;44236;48.098;11.582;2023-08-07T13:01:16;20.60;56.20
41644;DHT22;44236;48.098;11.582;2023-08-07T13:03:42;20.60;56.30
41644;DHT22;44236;48.098;11.582;2023-08-07T13:06:08;20.60;56.40
41644;DHT22;44236;48.098;11.582;2023-08-07T13:08:36;20.60;56.30
41644;DHT22;44236;48.098;11.582;2023-08-07T13:11:02;20.60;56.30
41644;DHT22;44236;48.098;11.582;2023-08-07T13:13:28;20.60;56.40
41644;DHT22;44236;48.098;11.582;2023-08-07T13:15:54;20.60;56.20
41644;DHT22;44236;48.098;11.582;2023-08-07T13:18:19;20.60;56.20
41644;DHT22;44236;48.098;11.582;2023-08-07T13:20:45;20.60;56.20
41644;DHT22;44236;48.098;11.582;2023-08-07T13:23:11;20.60;56.20
41644;DHT22;44236;48.098;11.582;2023-08-07T13:25:37;20.60;56.10
41644;DHT22;44236;48.098;11.582;2023-08-07T13:28:03;20.60;56.20
41644;DHT22;44236;48.098;11.582;2023-08-07T13:30:35;20.70;56.10
41644;DHT22;44236;48.098;11.582;2023-08-07T13:33:01;20.70;56.70
41644;DHT22;44236;48.098;11.582;2023-08-07T13:35:26;20.70;56.30
41644;DHT22;44236;48.098;11.582;2023-08-07T13:37:52;20.70;56.10
41644;DHT22;44236;48.098;11.582;2023-08-07T13:40:18;20.70;56.10
41644;DHT22;44236;48.098;11.582;2023-08-07T13:42:45;20.70;56.10
41644;DHT22;44236;48.098;11.582;2023-08-07T13:45:12;20.60;56.10
41644;DHT22;44236;48.098;11.582;2023-08-07T13:47:39;20.60;56.20
41644;DHT22;44236;48.098;11.582;2023-08-07T13:50:05;20.60;56.20
41644;DHT22;44236;48.098;11.582;2023-08-07T13:52:35;20.60;56.20
41644;DHT22;44236;48.098;11.582;2023-08-07T13:55:01;20.60;56.20
41644;DHT22;44236;48.098;11.582;2023-08-07T13:57:26;20.60;56.20
41644;DHT22;44236;48.098;11.582;2023-08-07T13:59:52;20.60;56.20
41644;DHT22;44236;48.098;11.582;2023-08-07T14:02:19;20.60;56.10
41644;DHT22;44236;48.098;11.582;2023-08-07T14:04:45;20.60;56.10
41644;DHT22;44236;48.098;11.582;2023-08-07T14:07:11;20.60;56.10
41644;DHT22;44236;48.098;11.582;2023-08-07T14:09:36;20.60;56.00
41644;DHT22;44236;48.098;11.582;2023-08-07T14:12:02;20.60;56.20
41644;DHT22;44236;48.098;11.582;2023-08-07T14:14:28;20.60;53.90
41644;DHT22;44236;48.098;11.582;2023-08-07T14:16:54;20.60;52.40
41644;DHT22;44236;48.098;11.582;2023-08-07T14:19:23;20.50;52.90
41644;DHT22;44236;48.098;11.582;2023-08-07T14:21:49;20.50;49.20
41644;DHT22;44236;48.098;11.582;2023-08-07T14:24:14;20.30;47.50
41644;DHT22;44236;48.098;11.582;2023-08-07T14:26:41;20.30;48.00
41644;DHT22;44236;48.098;11.582;2023-08-07T14:29:07;20.20;47.90
41644;DHT22;44236;48.098;11.582;2023-08-07T14:31:32;20.10;47.70
41644;DHT22;44236;48.098;11.582;2023-08-07T14:33:58;20.20;48.50
41644;DHT22;44236;48.098;11.582;2023-08-07T14:36:24;20.20;49.00
41644;DHT22;44236;48.098;11.582;2023-08-07T14:38:49;20.10;45.80
41644;DHT22;44236;48.098;11.582;2023-08-07T14:41:15;20.00;46.20
41644;DHT22;44236;48.098;11.582;2023-08-07T14:43:41;19.90;46.40
41644;DHT22;44236;48.098;11.582;2023-08-07T14:46:06;20.00;47.10
41644;DHT22;44236;48.098;11.582;2023-08-07T14:48:32;20.10;48.20
41644;DHT22;44236;48.098;11.582;2023-08-07T14:50:57;20.10;49.20
41644;DHT22;44236;48.098;11.582;2023-08-07T14:53:23;20.20;50.10
41644;DHT22;44236;48.098;11.582;2023-08-07T14:55:50;20.20;50.70
41644;DHT22;44236;48.098;11.582;2023-08-07T14:58:16;20.20;51.00
41644;DHT22;44236;48.098;11.582;2023-08-07T15:00:42;20.30;51.40
41644;DHT22;44236;48.098;11.582;2023-08-07T15:03:07;20.30;52.00
41644;DHT22;44236;48.098;11.582;2023-08-07T15:05:33;20.40;52.70
41644;DHT22;44236;48.098;11.582;2023-08-07T15:08:00;20.40;52.00
41644;DHT22;44236;48.098;11.582;2023-08-07T15:10:26;20.40;52.10
41644;DHT22;44236;48.098;11.582;2023-08-07T15:12:51;20.40;52.20
41644;DHT22;44236;48.098;11.582;2023-08-07T15:15:17;20.40;52.50
41644;DHT22;44236;48.098;11.582;2023-08-07T15:17:42;20.40;53.90
41644;DHT22;44236;48.098;11.582;2023-08-07T15:20:09;20.50;53.00
41644;DHT22;44236;48.098;11.582;2023-08-07T15:22:34;20.50;54.00
41644;DHT22;44236;48.098;11.582;2023-08-07T15:25:00;20.50;54.00
41644;DHT22;44236;48.098;11.582;2023-08-07T15:27:26;20.50;53.30
41644;DHT22;44236;48.098;11.582;2023-08-07T15:29:51;20.50;53.30
41644;DHT22;44236;48.098;11.582;2023-08-07T15:32:17;20.50;53.70
41644;DHT22;44236;48.098;11.582;2023-08-07T15:34:47;20.50;53.60
41644;DHT22;44236;48.098;11.582;2023-08-07T15:37:13;20.40;53.60
41644;DHT22;44236;48.098;11.582;2023-08-07T15:39:39;20.50;53.70
41644;DHT22;44236;48.098;11.582;2023-08-07T15:42:06;20.50;54.00
41644;DHT22;44236;48.098;11.582;2023-08-07T15:44:31;20.50;54.10
41644;DHT22;44236;48.098;11.582;2023-08-07T15:46:57;20.50;54.30
41644;DHT22;44236;48.098;11.582;2023-08-07T15:49:23;20.50;54.30
41644;DHT22;44236;48.098;11.582;2023-08-07T15:51:49;20.50;54.40
41644;DHT22;44236;48.098;11.582;2023-08-07T15:54:14;20.50;54.50
41644;DHT22;44236;48.098;11.582;2023-08-07T15:56:40;20.50;54.60
41644;DHT22;44236;48.098;11.582;2023-08-07T15:59:06;20.50;54.40
41644;DHT22;44236;48.098;11.582;2023-08-07T16:01:31;20.50;54.40
41644;DHT22;44236;48.098;11.582;2023-08-07T16:03:58;20.50;54.50
41644;DHT22;44236;48.098;11.582;2023-08-07T16:06:25;20.50;54.60
41644;DHT22;44236;48.098;11.582;2023-08-07T16:08:51;20.50;54.70
41644;DHT22;44236;48.098;11.582;2023-08-07T16:11:16;20.50;54.90
41644;DHT22;44236;48.098;11.582;2023-08-07T16:13:42;20.50;55.00
41644;DHT22;44236;48.098;11.582;2023-08-07T16:16:07;20.50;55.10
41644;DHT22;44236;48.098;11.582;2023-08-07T16:18:33;20.50;55.20
41644;DHT22;44236;48.098;11.582;2023-08-07T16:20:58;20.50;55.30
41644;DHT22;44236;48.098;11.582;2023-08-07T16:23:24;20.50;55.30
41644;DHT22;44236;48.098;11.582;2023-08-07T16:25:50;20.50;55.40
41644;DHT22;44236;48.098;11.582;2023-08-07T16:28:15;20.50;55.40
41644;DHT22;44236;48.098;11.582;2023-08-07T16:30:41;20.50;55.50
41644;DHT22;44236;48.098;11.582;2023-08-07T16:33:07;20.50;55.50
41644;DHT22;44236;48.098;11.582;2023-08-07T16:35:32;20.50;55.80
41644;DHT22;44236;48.098;11.582;2023-08-07T16:37:58;20.60;55.70
41644;DHT22;44236;48.098;11.582;2023-08-07T16:40:23;20.60;55.30
41644;DHT22;44236;48.098;11.582;2023-08-07T16:42:49;20.60;56.00
41644;DHT22;44236;48.098;11.582;2023-08-07T16:45:15;20.60;56.10
41644;DHT22;44236;48.098;11.582;2023-08-07T16:47:41;20.60;56.00
41644;DHT22;44236;48.098;11.582;2023-08-07T16:50:07;20.60;56.00
41644;DHT22;44236;48.098;11.582;2023-08-07T16:52:33;20.70;55.30
41644;DHT22;44236;48.098;11.582;2023-08-07T16:54:58;20.60;55.70
41644;DHT22;44236;48.098;11.582;2023-08-07T16:57:24;20.60;56.00
41644;DHT22;44236;48.098;11.582;2023-08-07T16:59:49;20.60;56.10
41644;DHT22;44236;48.098;11.582;2023-08-07T17:02:15;20.60;55.90
41644;DHT22;44236;48.098;11.582;2023-08-07T17:04:41;20.60;55.60
41644;DHT22;44236;48.098;11.582;2023-08-07T17:07:08;20.60;56.10
41644;DHT22;44236;48.098;11.582;2023-08-07T17:09:34;20.60;56.10
41644;DHT22;44236;48.098;11.582;2023-08-07T17:12:01;20.60;56.10
41644;DHT22;44236;48.098;11.582;2023-08-07T17:14:27;20.60;56.10
41644;DHT22;44236;48.098;11.582;2023-08-07T17:16:53;20.60;56.00
41644;DHT22;44236;48.098;11.582;2023-08-07T17:19:18;20.60;56.00
41644;DHT22;44236;48.098;11.582;2023-08-07T17:21:46;20.60;56.00
41644;DHT22;44236;48.098;11.582;2023-08-07T17:24:12;20.60;56.10
41644;DHT22;44236;48.098;11.582;2023-08-07T17:26:37;20.60;56.10
41644;DHT22;44236;48.098;11.582;2023-08-07T17:29:03;20.60;56.10
41644;DHT22;44236;48.098;11.582;2023-08-07T17:31:29;20.60;56.10
41644;DHT22;44236;48.098;11.582;2023-08-07T17:33:55;20.60;56.10
41644;DHT22;44236;48.098;11.582;2023-08-07T17:36:21;20.60;56.10
41644;DHT22;44236;48.098;11.582;2023-08-07T17:38:47;20.60;56.10
41644;DHT22;44236;48.098;11.582;2023-08-07T17:41:13;20.60;56.20
41644;DHT22;44236;48.098;11.582;2023-08-07T17:43:39;20.60;56.20
41644;DHT22;44236;48.098;11.582;2023-08-07T17:46:04;20.60;56.20
41644;DHT22;44236;48.098;11.582;2023-08-07T17:48:30;20.60;56.20
41644;DHT22;44236;48.098;11.582;2023-08-07T17:50:56;20.60;56.20
41644;DHT22;44236;48.098;11.582;2023-08-07T17:53:22;20.60;56.20
41644;DHT22;44236;48.098;11.582;2023-08-07T17:55:47;20.60;56.20
41644;DHT22;44236;48.098;11.582;2023-08-07T17:58:13;20.60;56.20
41644;DHT22;44236;48.098;11.582;2023-08-07T18:00:39;20.60;56.20
41644;DHT22;44236;48.098;11.582;2023-08-07T18:03:05;20.60;56.40
41644;DHT22;44236;48.098;11.582;2023-08-07T18:05:32;20.60;56.40
41644;DHT22;44236;48.098;11.582;2023-08-07T18:07:57;20.60;56.40
41644;DHT22;44236;48.098;11.582;2023-08-07T18:10:23;20.60;56.50
41644;DHT22;44236;48.098;11.582;2023-08-07T18:12:49;20.50;56.50
41644;DHT22;44236;48.098;11.582;2023-08-07T18:15:14;20.60;56.60
41644;DHT22;44236;48.098;11.582;2023-08-07T18:17:40;20.60;56.60
41644;DHT22;44236;48.098;11.582;2023-08-07T18:20:06;20.60;56.60
41644;DHT22;44236;48.098;11.582;2023-08-07T18:22:33;20.60;56.60
41644;DHT22;44236;48.098;11.582;2023-08-07T18:24:58;20.50;56.10
41644;DHT22;44236;48.098;11.582;2023-08-07T18:27:24;20.40;56.10
41644;DHT22;44236;48.098;11.582;2023-08-07T18:29:50;20.20;55.90
41644;DHT22;44236;48.098;11.582;2023-08-07T18:32:16;20.00;56.10
41644;DHT22;44236;48.098;11.582;2023-08-07T18:34:42;19.90;56.20
41644;DHT22;44236;48.098;11.582;2023-08-07T18:37:07;19.90;56.20
41644;DHT22;44236;48.098;11.582;2023-08-07T18:39:33;19.80;56.20
41644;DHT22;44236;48.098;11.582;2023-08-07T18:41:58;19.70;55.80
41644;DHT22;44236;48.098;11.582;2023-08-07T18:44:24;19.70;56.30
41644;DHT22;44236;48.098;11.582;2023-08-07T18:46:49;19.70;56.40
41644;DHT22;44236;48.098;11.582;2023-08-07T18:49:15;19.80;56.80
41644;DHT22;44236;48.098;11.582;2023-08-07T18:51:41;19.90;56.80
41644;DHT22;44236;48.098;11.582;2023-08-07T18:54:09;20.00;56.70
41644;DHT22;44236;48.098;11.582;2023-08-07T18:56:35;20.10;56.80
41644;DHT22;44236;48.098;11.582;2023-08-07T18:59:01;20.10;56.80
41644;DHT22;44236;48.098;11.582;2023-08-07T19:01:29;20.10;56.90
41644;DHT22;44236;48.098;11.582;2023-08-07T19:03:55;20.10;56.90
41644;DHT22;44236;48.098;11.582;2023-08-07T19:06:20;20.20;57.00
41644;DHT22;44236;48.098;11.582;2023-08-07T19:08:46;20.20;57.00
41644;DHT22;44236;48.098;11.582;2023-08-07T19:11:12;20.30;57.20
41644;DHT22;44236;48.098;11.582;2023-08-07T19:13:37;20.30;57.20
41644;DHT22;44236;48.098;11.582;2023-08-07T19:16:03;20.30;57.30
41644;DHT22;44236;48.098;11.582;2023-08-07T19:18:29;20.30;57.30
41644;DHT22;44236;48.098;11.582;2023-08-07T19:20:55;20.40;57.40
41644;DHT22;44236;48.098;11.582;2023-08-07T19:23:25;20.40;57.30
41644;DHT22;44236;48.098;11.582;2023-08-07T19:25:52;20.40;57.40
41644;DHT22;44236;48.098;11.582;2023-08-07T19:28:17;20.50;57.40
41644;DHT22;44236;48.098;11.582;2023-08-07T19:30:43;20.50;57.40
41644;DHT22;44236;48.098;11.582;2023-08-07T19:33:09;20.50;57.30
41644;DHT22;44236;48.098;11.582;2023-08-07T19:35:34;20.60;57.40
41644;DHT22;44236;48.098;11.582;2023-08-07T19:38:02;20.60;57.30
41644;DHT22;44236;48.098;11.582;2023-08-07T19:40:27;20.60;57.20
41644;DHT22;44236;48.098;11.582;2023-08-07T19:42:54;20.70;57.10
41644;DHT22;44236;48.098;11.582;2023-08-07T19:45:20;20.70;57.20
41644;DHT22;44236;48.098;11.582;2023-08-07T19:47:47;20.80;57.10
41644;DHT22;44236;48.098;11.582;2023-08-07T19:50:14;20.90;57.00
41644;DHT22;44236;48.098;11.582;2023-08-07T19:52:39;20.90;57.00
41644;DHT22;44236;48.098;11.582;2023-08-07T19:55:06;20.90;56.70
41644;DHT22;44236;48.098;11.582;2023-08-07T19:57:31;21.00;56.70
41644;DHT22;44236;48.098;11.582;2023-08-07T19:59:57;21.00;56.80
41644;DHT22;44236;48.098;11.582;2023-08-07T20:02:23;21.00;56.70
41644;DHT22;44236;48.098;11.582;2023-08-07T20:04:49;21.00;56.60
41644;DHT22;44236;48.098;11.582;2023-08-07T20:07:15;21.00;56.60
41644;DHT22;44236;48.098;11.582;2023-08-07T20:09:41;21.10;56.50